Weather at Robbins Roost Airport

Public forecast

Using degrees Fahrenheit for public forecast. Weather courtesy of forecast.io.

Closest aviation weather report (METAR) to Robbins Roost Airport

Closest report is Stuart Powell Field, 12.4 nm (22.9 km) NW. Retrieved 2021/06/20 08:15 UTC (38 minutes ago):

KDVK 200815Z AUTO 28003KT 10SM CLR 20/18 A2989 RMK AO2

Closest aviation forecast (TAF) to Robbins Roost Airport

Closest forecast is Lake Cumberland Regional Airport, 21.4 nm (39.6 km) S. Retrieved 2021/06/20 06:24 UTC (2 hours ago):

TAF KSME 200521Z 2006/2106 00000KT P6SM SCT300 FM201700 21005KT P6SM SCT045 SCT300